sensor_id;sensor_type;location;lat;lon;timestamp;temperature;humidity
31038;DHT22;17702;47.590;7.666;2023-07-08T00:00:44;22.70;84.10
31038;DHT22;17702;47.590;7.666;2023-07-08T00:03:13;22.60;84.50
31038;DHT22;17702;47.590;7.666;2023-07-08T00:05:39;22.60;84.90
31038;DHT22;17702;47.590;7.666;2023-07-08T00:08:05;22.50;84.70
31038;DHT22;17702;47.590;7.666;2023-07-08T00:10:31;22.60;83.80
31038;DHT22;17702;47.590;7.666;2023-07-08T00:12:57;22.60;83.00
31038;DHT22;17702;47.590;7.666;2023-07-08T00:15:28;22.60;82.20
31038;DHT22;17702;47.590;7.666;2023-07-08T00:17:54;22.70;83.30
31038;DHT22;17702;47.590;7.666;2023-07-08T00:20:36;22.70;81.50
31038;DHT22;17702;47.590;7.666;2023-07-08T00:23:02;22.70;74.70
31038;DHT22;17702;47.590;7.666;2023-07-08T00:25:29;22.80;76.70
31038;DHT22;17702;47.590;7.666;2023-07-08T00:27:55;22.90;74.00
31038;DHT22;17702;47.590;7.666;2023-07-08T00:30:27;23.10;68.60
31038;DHT22;17702;47.590;7.666;2023-07-08T00:32:53;23.20;66.60
31038;DHT22;17702;47.590;7.666;2023-07-08T00:35:45;23.30;66.40
31038;DHT22;17702;47.590;7.666;2023-07-08T00:38:23;23.40;65.60
31038;DHT22;17702;47.590;7.666;2023-07-08T00:43:46;23.60;64.80
31038;DHT22;17702;47.590;7.666;2023-07-08T00:51:34;23.80;62.20
31038;DHT22;17702;47.590;7.666;2023-07-08T00:54:00;23.90;61.70
31038;DHT22;17702;47.590;7.666;2023-07-08T00:56:33;23.90;62.10
31038;DHT22;17702;47.590;7.666;2023-07-08T00:59:04;23.90;62.20
31038;DHT22;17702;47.590;7.666;2023-07-08T01:01:33;24.00;62.40
31038;DHT22;17702;47.590;7.666;2023-07-08T01:04:04;24.10;62.60
31038;DHT22;17702;47.590;7.666;2023-07-08T01:06:34;24.00;62.10
31038;DHT22;17702;47.590;7.666;2023-07-08T01:09:05;24.10;63.50
31038;DHT22;17702;47.590;7.666;2023-07-08T01:11:32;24.10;60.70
31038;DHT22;17702;47.590;7.666;2023-07-08T01:14:00;24.10;61.60
31038;DHT22;17702;47.590;7.666;2023-07-08T01:16:27;24.10;61.50
31038;DHT22;17702;47.590;7.666;2023-07-08T01:18:52;24.10;61.30
31038;DHT22;17702;47.590;7.666;2023-07-08T01:21:32;24.00;62.00
31038;DHT22;17702;47.590;7.666;2023-07-08T01:24:00;24.00;61.70
31038;DHT22;17702;47.590;7.666;2023-07-08T01:26:27;24.00;61.60
31038;DHT22;17702;47.590;7.666;2023-07-08T01:28:55;24.00;61.40
31038;DHT22;17702;47.590;7.666;2023-07-08T01:31:22;24.00;62.20
31038;DHT22;17702;47.590;7.666;2023-07-08T01:33:49;24.00;62.20
31038;DHT22;17702;47.590;7.666;2023-07-08T01:36:16;24.10;61.70
31038;DHT22;17702;47.590;7.666;2023-07-08T01:38:43;24.00;62.00
31038;DHT22;17702;47.590;7.666;2023-07-08T01:41:12;24.00;61.80
31038;DHT22;17702;47.590;7.666;2023-07-08T01:43:39;24.00;62.00
31038;DHT22;17702;47.590;7.666;2023-07-08T01:46:12;24.00;62.60
31038;DHT22;17702;47.590;7.666;2023-07-08T01:48:41;24.00;62.20
31038;DHT22;17702;47.590;7.666;2023-07-08T01:51:08;24.00;63.80
31038;DHT22;17702;47.590;7.666;2023-07-08T01:53:39;24.00;64.70
31038;DHT22;17702;47.590;7.666;2023-07-08T01:56:08;24.00;68.30
31038;DHT22;17702;47.590;7.666;2023-07-08T01:58:34;23.90;75.70
31038;DHT22;17702;47.590;7.666;2023-07-08T02:01:01;23.90;84.50
31038;DHT22;17702;47.590;7.666;2023-07-08T02:03:27;23.70;84.40
31038;DHT22;17702;47.590;7.666;2023-07-08T02:05:53;23.40;89.80
31038;DHT22;17702;47.590;7.666;2023-07-08T02:08:19;23.20;93.00
31038;DHT22;17702;47.590;7.666;2023-07-08T02:10:50;23.00;97.40
31038;DHT22;17702;47.590;7.666;2023-07-08T02:13:16;22.80;99.10
31038;DHT22;17702;47.590;7.666;2023-07-08T02:15:42;22.70;99.90
31038;DHT22;17702;47.590;7.666;2023-07-08T02:18:08;22.60;99.90
31038;DHT22;17702;47.590;7.666;2023-07-08T02:20:33;22.40;99.90
31038;DHT22;17702;47.590;7.666;2023-07-08T02:22:59;22.30;99.90
31038;DHT22;17702;47.590;7.666;2023-07-08T02:25:24;22.20;99.90
31038;DHT22;17702;47.590;7.666;2023-07-08T02:27:50;22.10;99.90
31038;DHT22;17702;47.590;7.666;2023-07-08T02:30:16;22.10;99.90
31038;DHT22;17702;47.590;7.666;2023-07-08T02:32:41;22.00;99.90
31038;DHT22;17702;47.590;7.666;2023-07-08T02:35:08;21.90;99.90
31038;DHT22;17702;47.590;7.666;2023-07-08T02:37:34;21.90;99.90
31038;DHT22;17702;47.590;7.666;2023-07-08T02:40:00;21.90;99.90
31038;DHT22;17702;47.590;7.666;2023-07-08T02:42:26;21.80;99.90
31038;DHT22;17702;47.590;7.666;2023-07-08T02:44:52;21.80;99.90
31038;DHT22;17702;47.590;7.666;2023-07-08T02:47:17;21.90;99.90
31038;DHT22;17702;47.590;7.666;2023-07-08T02:49:44;21.90;99.90
31038;DHT22;17702;47.590;7.666;2023-07-08T02:52:10;21.80;99.90
31038;DHT22;17702;47.590;7.666;2023-07-08T02:54:37;21.70;99.90
31038;DHT22;17702;47.590;7.666;2023-07-08T02:57:02;21.70;99.90
31038;DHT22;17702;47.590;7.666;2023-07-08T02:59:28;21.60;99.90
31038;DHT22;17702;47.590;7.666;2023-07-08T03:01:54;21.60;99.90
31038;DHT22;17702;47.590;7.666;2023-07-08T03:04:19;21.60;99.90
31038;DHT22;17702;47.590;7.666;2023-07-08T03:06:49;21.60;99.90
31038;DHT22;17702;47.590;7.666;2023-07-08T03:09:15;21.60;99.90
31038;DHT22;17702;47.590;7.666;2023-07-08T03:11:41;21.50;99.90
31038;DHT22;17702;47.590;7.666;2023-07-08T03:14:07;21.50;99.90
31038;DHT22;17702;47.590;7.666;2023-07-08T03:16:32;21.50;99.90
31038;DHT22;17702;47.590;7.666;2023-07-08T03:18:58;21.50;99.90
31038;DHT22;17702;47.590;7.666;2023-07-08T03:21:24;21.50;99.90
31038;DHT22;17702;47.590;7.666;2023-07-08T03:23:50;21.50;99.90
31038;DHT22;17702;47.590;7.666;2023-07-08T03:26:19;21.40;99.90
31038;DHT22;17702;47.590;7.666;2023-07-08T03:28:46;21.30;99.90
31038;DHT22;17702;47.590;7.666;2023-07-08T03:31:11;21.10;99.90
31038;DHT22;17702;47.590;7.666;2023-07-08T03:33:37;21.00;99.90
31038;DHT22;17702;47.590;7.666;2023-07-08T03:36:04;20.80;99.90
31038;DHT22;17702;47.590;7.666;2023-07-08T03:38:30;20.90;99.90
31038;DHT22;17702;47.590;7.666;2023-07-08T03:40:55;20.90;99.90
31038;DHT22;17702;47.590;7.666;2023-07-08T03:43:21;20.90;99.90
31038;DHT22;17702;47.590;7.666;2023-07-08T03:45:47;21.00;99.90
31038;DHT22;17702;47.590;7.666;2023-07-08T03:48:13;21.00;99.90
31038;DHT22;17702;47.590;7.666;2023-07-08T03:50:38;21.00;99.90
31038;DHT22;17702;47.590;7.666;2023-07-08T03:53:04;21.00;99.90
31038;DHT22;17702;47.590;7.666;2023-07-08T03:55:30;21.00;99.90
31038;DHT22;17702;47.590;7.666;2023-07-08T03:57:55;20.90;99.90
31038;DHT22;17702;47.590;7.666;2023-07-08T04:00:21;20.80;99.90
31038;DHT22;17702;47.590;7.666;2023-07-08T04:02:47;20.90;99.90
31038;DHT22;17702;47.590;7.666;2023-07-08T04:05:20;20.90;99.90
31038;DHT22;17702;47.590;7.666;2023-07-08T04:07:47;21.00;99.90
31038;DHT22;17702;47.590;7.666;2023-07-08T04:10:14;21.00;99.90
31038;DHT22;17702;47.590;7.666;2023-07-08T04:12:40;21.10;99.90
31038;DHT22;17702;47.590;7.666;2023-07-08T04:15:09;21.20;99.90
31038;DHT22;17702;47.590;7.666;2023-07-08T04:17:42;21.30;99.90
31038;DHT22;17702;47.590;7.666;2023-07-08T04:20:09;21.30;99.90
31038;DHT22;17702;47.590;7.666;2023-07-08T04:22:37;21.30;99.90
31038;DHT22;17702;47.590;7.666;2023-07-08T04:25:03;21.30;99.90
31038;DHT22;17702;47.590;7.666;2023-07-08T04:27:29;21.30;99.90
31038;DHT22;17702;47.590;7.666;2023-07-08T04:29:54;21.30;99.90
31038;DHT22;17702;47.590;7.666;2023-07-08T04:32:20;21.30;99.90
31038;DHT22;17702;47.590;7.666;2023-07-08T04:34:51;21.20;99.90
31038;DHT22;17702;47.590;7.666;2023-07-08T04:37:17;21.20;99.90
31038;DHT22;17702;47.590;7.666;2023-07-08T04:39:44;21.20;99.90
31038;DHT22;17702;47.590;7.666;2023-07-08T04:42:10;21.20;99.90
31038;DHT22;17702;47.590;7.666;2023-07-08T04:44:38;21.10;99.90
31038;DHT22;17702;47.590;7.666;2023-07-08T04:47:04;21.10;99.90
31038;DHT22;17702;47.590;7.666;2023-07-08T04:49:29;21.00;99.90
31038;DHT22;17702;47.590;7.666;2023-07-08T04:51:57;20.90;99.90
31038;DHT22;17702;47.590;7.666;2023-07-08T04:54:23;20.90;99.90
31038;DHT22;17702;47.590;7.666;2023-07-08T04:56:49;20.90;99.90
31038;DHT22;17702;47.590;7.666;2023-07-08T04:59:19;20.80;99.90
31038;DHT22;17702;47.590;7.666;2023-07-08T05:01:45;20.80;99.90
31038;DHT22;17702;47.590;7.666;2023-07-08T05:04:15;20.90;99.90
31038;DHT22;17702;47.590;7.666;2023-07-08T05:06:41;20.90;99.90
31038;DHT22;17702;47.590;7.666;2023-07-08T05:09:08;21.00;99.90
31038;DHT22;17702;47.590;7.666;2023-07-08T05:11:34;20.90;99.90
31038;DHT22;17702;47.590;7.666;2023-07-08T05:14:01;21.00;99.90
31038;DHT22;17702;47.590;7.666;2023-07-08T05:16:27;21.00;99.90
31038;DHT22;17702;47.590;7.666;2023-07-08T05:18:52;21.00;99.90
31038;DHT22;17702;47.590;7.666;2023-07-08T05:21:19;21.00;99.90
31038;DHT22;17702;47.590;7.666;2023-07-08T05:23:45;21.00;99.90
31038;DHT22;17702;47.590;7.666;2023-07-08T05:26:11;20.90;99.90
31038;DHT22;17702;47.590;7.666;2023-07-08T05:28:37;20.90;99.90
31038;DHT22;17702;47.590;7.666;2023-07-08T05:31:03;20.90;99.90
31038;DHT22;17702;47.590;7.666;2023-07-08T05:33:30;20.90;99.90
31038;DHT22;17702;47.590;7.666;2023-07-08T05:35:56;20.90;99.90
31038;DHT22;17702;47.590;7.666;2023-07-08T05:38:21;20.80;99.90
31038;DHT22;17702;47.590;7.666;2023-07-08T05:40:53;20.80;99.90
31038;DHT22;17702;47.590;7.666;2023-07-08T05:43:19;20.80;99.90
31038;DHT22;17702;47.590;7.666;2023-07-08T05:45:45;20.80;99.90
31038;DHT22;17702;47.590;7.666;2023-07-08T05:48:11;20.80;99.90
31038;DHT22;17702;47.590;7.666;2023-07-08T05:50:37;20.80;99.90
31038;DHT22;17702;47.590;7.666;2023-07-08T05:53:03;20.90;99.90
31038;DHT22;17702;47.590;7.666;2023-07-08T05:55:28;20.80;99.90
31038;DHT22;17702;47.590;7.666;2023-07-08T05:57:54;20.90;99.90
31038;DHT22;17702;47.590;7.666;2023-07-08T06:00:20;20.80;99.90
31038;DHT22;17702;47.590;7.666;2023-07-08T06:02:45;20.90;99.90
31038;DHT22;17702;47.590;7.666;2023-07-08T06:05:11;20.80;99.90
31038;DHT22;17702;47.590;7.666;2023-07-08T06:07:37;20.70;99.90
31038;DHT22;17702;47.590;7.666;2023-07-08T06:10:03;20.70;99.90
31038;DHT22;17702;47.590;7.666;2023-07-08T06:12:29;20.70;99.90
31038;DHT22;17702;47.590;7.666;2023-07-08T06:14:56;20.60;99.90
31038;DHT22;17702;47.590;7.666;2023-07-08T06:17:21;20.70;99.90
31038;DHT22;17702;47.590;7.666;2023-07-08T06:19:47;20.70;99.90
31038;DHT22;17702;47.590;7.666;2023-07-08T06:22:13;20.70;99.90
31038;DHT22;17702;47.590;7.666;2023-07-08T06:24:39;20.70;99.90
31038;DHT22;17702;47.590;7.666;2023-07-08T06:27:05;20.70;99.90
31038;DHT22;17702;47.590;7.666;2023-07-08T06:29:31;20.60;99.90
31038;DHT22;17702;47.590;7.666;2023-07-08T06:31:56;20.70;99.90
31038;DHT22;17702;47.590;7.666;2023-07-08T06:34:22;20.80;99.90
31038;DHT22;17702;47.590;7.666;2023-07-08T06:36:49;20.90;99.90
31038;DHT22;17702;47.590;7.666;2023-07-08T06:39:15;20.90;99.90
31038;DHT22;17702;47.590;7.666;2023-07-08T06:41:42;21.00;99.90
31038;DHT22;17702;47.590;7.666;2023-07-08T06:44:07;21.00;99.90
31038;DHT22;17702;47.590;7.666;2023-07-08T06:46:33;21.00;99.90
31038;DHT22;17702;47.590;7.666;2023-07-08T06:48:59;21.00;99.90
31038;DHT22;17702;47.590;7.666;2023-07-08T06:51:26;21.00;99.90
31038;DHT22;17702;47.590;7.666;2023-07-08T06:53:51;20.90;99.90
31038;DHT22;17702;47.590;7.666;2023-07-08T06:56:17;20.90;99.90
31038;DHT22;17702;47.590;7.666;2023-07-08T06:58:43;20.90;99.90
31038;DHT22;17702;47.590;7.666;2023-07-08T07:01:08;21.00;99.90
31038;DHT22;17702;47.590;7.666;2023-07-08T07:03:34;21.00;99.90
31038;DHT22;17702;47.590;7.666;2023-07-08T07:05:59;21.00;99.90
31038;DHT22;17702;47.590;7.666;2023-07-08T07:08:25;21.10;99.90
31038;DHT22;17702;47.590;7.666;2023-07-08T07:10:51;21.10;99.90
31038;DHT22;17702;47.590;7.666;2023-07-08T07:13:16;21.10;99.90
31038;DHT22;17702;47.590;7.666;2023-07-08T07:15:42;21.10;99.90
31038;DHT22;17702;47.590;7.666;2023-07-08T07:18:08;21.10;99.90
31038;DHT22;17702;47.590;7.666;2023-07-08T07:20:37;21.00;99.90
31038;DHT22;17702;47.590;7.666;2023-07-08T07:23:03;21.00;99.90
31038;DHT22;17702;47.590;7.666;2023-07-08T07:25:29;21.00;99.90
31038;DHT22;17702;47.590;7.666;2023-07-08T07:27:54;21.00;99.90
31038;DHT22;17702;47.590;7.666;2023-07-08T07:30:20;21.00;99.90
31038;DHT22;17702;47.590;7.666;2023-07-08T07:32:46;21.00;99.90
31038;DHT22;17702;47.590;7.666;2023-07-08T07:35:13;20.90;99.90
31038;DHT22;17702;47.590;7.666;2023-07-08T07:37:40;20.90;99.90
31038;DHT22;17702;47.590;7.666;2023-07-08T07:40:11;20.80;99.90
31038;DHT22;17702;47.590;7.666;2023-07-08T07:42:39;20.80;99.90
31038;DHT22;17702;47.590;7.666;2023-07-08T07:45:05;20.90;99.90
31038;DHT22;17702;47.590;7.666;2023-07-08T07:47:31;20.90;99.90
31038;DHT22;17702;47.590;7.666;2023-07-08T07:49:57;20.90;99.90
31038;DHT22;17702;47.590;7.666;2023-07-08T07:52:23;21.00;99.90
31038;DHT22;17702;47.590;7.666;2023-07-08T07:54:53;21.00;99.90
31038;DHT22;17702;47.590;7.666;2023-07-08T07:57:19;21.00;99.90
31038;DHT22;17702;47.590;7.666;2023-07-08T07:59:46;21.10;99.90
31038;DHT22;17702;47.590;7.666;2023-07-08T08:02:11;21.20;99.90
31038;DHT22;17702;47.590;7.666;2023-07-08T08:04:37;21.20;99.90
31038;DHT22;17702;47.590;7.666;2023-07-08T08:07:03;21.20;99.90
31038;DHT22;17702;47.590;7.666;2023-07-08T08:09:29;21.30;99.90
31038;DHT22;17702;47.590;7.666;2023-07-08T08:11:55;21.30;99.90
31038;DHT22;17702;47.590;7.666;2023-07-08T08:14:21;21.30;99.90
31038;DHT22;17702;47.590;7.666;2023-07-08T08:16:47;21.40;99.90
31038;DHT22;17702;47.590;7.666;2023-07-08T08:19:13;21.50;99.90
31038;DHT22;17702;47.590;7.666;2023-07-08T08:21:38;21.50;99.90
31038;DHT22;17702;47.590;7.666;2023-07-08T08:24:04;21.50;99.90
31038;DHT22;17702;47.590;7.666;2023-07-08T08:26:30;21.60;99.90
31038;DHT22;17702;47.590;7.666;2023-07-08T08:28:56;21.60;99.90
31038;DHT22;17702;47.590;7.666;2023-07-08T08:31:22;21.70;99.90
31038;DHT22;17702;47.590;7.666;2023-07-08T08:33:47;21.80;99.90
31038;DHT22;17702;47.590;7.666;2023-07-08T08:36:13;21.80;99.90
31038;DHT22;17702;47.590;7.666;2023-07-08T08:38:38;21.80;99.90
31038;DHT22;17702;47.590;7.666;2023-07-08T08:41:17;21.90;99.90
31038;DHT22;17702;47.590;7.666;2023-07-08T08:43:45;21.90;99.90
31038;DHT22;17702;47.590;7.666;2023-07-08T08:51:22;22.10;99.90
31038;DHT22;17702;47.590;7.666;2023-07-08T08:53:53;22.10;99.90
31038;DHT22;17702;47.590;7.666;2023-07-08T08:56:27;22.20;99.90
31038;DHT22;17702;47.590;7.666;2023-07-08T09:01:55;22.40;99.90
31038;DHT22;17702;47.590;7.666;2023-07-08T09:04:25;22.50;99.90
31038;DHT22;17702;47.590;7.666;2023-07-08T09:07:00;22.60;99.90
31038;DHT22;17702;47.590;7.666;2023-07-08T09:09:47;22.70;99.90
31038;DHT22;17702;47.590;7.666;2023-07-08T09:12:23;22.80;99.90
31038;DHT22;17702;47.590;7.666;2023-07-08T09:14:50;22.90;99.90
31038;DHT22;17702;47.590;7.666;2023-07-08T09:17:30;23.00;99.90
31038;DHT22;17702;47.590;7.666;2023-07-08T09:22:39;23.10;99.90
31038;DHT22;17702;47.590;7.666;2023-07-08T09:27:41;23.30;99.90
31038;DHT22;17702;47.590;7.666;2023-07-08T09:30:17;23.40;99.90
31038;DHT22;17702;47.590;7.666;2023-07-08T09:32:43;23.50;99.90
31038;DHT22;17702;47.590;7.666;2023-07-08T09:35:16;23.40;99.90
31038;DHT22;17702;47.590;7.666;2023-07-08T09:37:46;23.40;99.90
31038;DHT22;17702;47.590;7.666;2023-07-08T09:40:21;23.30;99.90
31038;DHT22;17702;47.590;7.666;2023-07-08T09:42:50;23.30;99.90
31038;DHT22;17702;47.590;7.666;2023-07-08T09:45:20;23.30;99.90
31038;DHT22;17702;47.590;7.666;2023-07-08T09:47:46;23.40;99.90
31038;DHT22;17702;47.590;7.666;2023-07-08T09:50:22;23.40;99.90
31038;DHT22;17702;47.590;7.666;2023-07-08T09:52:48;23.40;99.90
31038;DHT22;17702;47.590;7.666;2023-07-08T09:55:15;23.40;99.90
31038;DHT22;17702;47.590;7.666;2023-07-08T09:57:43;23.50;99.90
31038;DHT22;17702;47.590;7.666;2023-07-08T10:00:13;23.50;99.90
31038;DHT22;17702;47.590;7.666;2023-07-08T10:02:40;23.50;99.90
31038;DHT22;17702;47.590;7.666;2023-07-08T10:05:16;23.70;99.90
31038;DHT22;17702;47.590;7.666;2023-07-08T10:07:44;23.70;99.90
31038;DHT22;17702;47.590;7.666;2023-07-08T10:10:15;23.80;99.90
31038;DHT22;17702;47.590;7.666;2023-07-08T10:12:43;23.90;99.90
31038;DHT22;17702;47.590;7.666;2023-07-08T10:15:20;24.10;99.90
31038;DHT22;17702;47.590;7.666;2023-07-08T10:17:47;24.30;99.90
31038;DHT22;17702;47.590;7.666;2023-07-08T10:20:13;24.40;99.90
31038;DHT22;17702;47.590;7.666;2023-07-08T10:23:08;24.40;99.90
31038;DHT22;17702;47.590;7.666;2023-07-08T10:26:01;24.40;99.90
31038;DHT22;17702;47.590;7.666;2023-07-08T10:28:43;24.30;99.90
31038;DHT22;17702;47.590;7.666;2023-07-08T10:31:41;24.30;99.90
31038;DHT22;17702;47.590;7.666;2023-07-08T10:36:56;24.80;99.90
31038;DHT22;17702;47.590;7.666;2023-07-08T10:45:15;24.90;99.90
31038;DHT22;17702;47.590;7.666;2023-07-08T10:48:07;24.90;99.90
31038;DHT22;17702;47.590;7.666;2023-07-08T10:56:50;24.60;99.90
31038;DHT22;17702;47.590;7.666;2023-07-08T11:05:14;24.40;99.90
31038;DHT22;17702;47.590;7.666;2023-07-08T11:07:45;24.40;99.90
31038;DHT22;17702;47.590;7.666;2023-07-08T11:10:22;24.30;99.90
31038;DHT22;17702;47.590;7.666;2023-07-08T11:12:57;24.30;99.90
31038;DHT22;17702;47.590;7.666;2023-07-08T11:15:35;24.10;99.90
31038;DHT22;17702;47.590;7.666;2023-07-08T11:18:15;24.10;99.90
31038;DHT22;17702;47.590;7.666;2023-07-08T11:20:51;24.10;99.90
31038;DHT22;17702;47.590;7.666;2023-07-08T11:23:38;24.00;99.90
31038;DHT22;17702;47.590;7.666;2023-07-08T11:26:20;24.00;99.90
31038;DHT22;17702;47.590;7.666;2023-07-08T11:28:50;24.00;99.90
31038;DHT22;17702;47.590;7.666;2023-07-08T11:31:17;24.00;99.90
31038;DHT22;17702;47.590;7.666;2023-07-08T11:33:44;24.00;99.90
31038;DHT22;17702;47.590;7.666;2023-07-08T11:36:11;24.00;99.90
31038;DHT22;17702;47.590;7.666;2023-07-08T11:38:47;24.00;99.90
31038;DHT22;17702;47.590;7.666;2023-07-08T11:41:19;24.00;99.90
31038;DHT22;17702;47.590;7.666;2023-07-08T11:46:21;23.90;99.90
31038;DHT22;17702;47.590;7.666;2023-07-08T11:48:50;24.00;99.90
31038;DHT22;17702;47.590;7.666;2023-07-08T11:51:19;24.00;99.90
31038;DHT22;17702;47.590;7.666;2023-07-08T11:53:58;24.10;99.90
31038;DHT22;17702;47.590;7.666;2023-07-08T11:56:25;24.10;99.90
31038;DHT22;17702;47.590;7.666;2023-07-08T12:01:37;24.30;99.90
31038;DHT22;17702;47.590;7.666;2023-07-08T12:09:23;24.60;99.90
31038;DHT22;17702;47.590;7.666;2023-07-08T12:11:58;24.80;99.90
31038;DHT22;17702;47.590;7.666;2023-07-08T12:14:25;25.00;99.90
31038;DHT22;17702;47.590;7.666;2023-07-08T12:16:52;24.90;99.80
31038;DHT22;17702;47.590;7.666;2023-07-08T12:19:19;25.10;99.90
31038;DHT22;17702;47.590;7.666;2023-07-08T12:21:46;25.50;99.90
31038;DHT22;17702;47.590;7.666;2023-07-08T12:24:13;26.00;99.20
31038;DHT22;17702;47.590;7.666;2023-07-08T12:26:43;26.50;98.00
31038;DHT22;17702;47.590;7.666;2023-07-08T12:29:12;26.90;96.90
31038;DHT22;17702;47.590;7.666;2023-07-08T12:31:39;27.40;96.10
31038;DHT22;17702;47.590;7.666;2023-07-08T12:34:11;27.80;94.60
31038;DHT22;17702;47.590;7.666;2023-07-08T12:36:38;28.10;93.00
31038;DHT22;17702;47.590;7.666;2023-07-08T12:39:05;28.40;90.80
31038;DHT22;17702;47.590;7.666;2023-07-08T12:41:33;28.70;92.80
31038;DHT22;17702;47.590;7.666;2023-07-08T12:44:00;28.90;91.90
31038;DHT22;17702;47.590;7.666;2023-07-08T12:46:26;29.10;88.50
31038;DHT22;17702;47.590;7.666;2023-07-08T12:48:52;29.10;89.30
31038;DHT22;17702;47.590;7.666;2023-07-08T12:51:20;29.10;85.40
31038;DHT22;17702;47.590;7.666;2023-07-08T12:53:47;29.20;86.50
31038;DHT22;17702;47.590;7.666;2023-07-08T12:56:13;29.30;84.40
31038;DHT22;17702;47.590;7.666;2023-07-08T12:58:44;29.30;84.70
31038;DHT22;17702;47.590;7.666;2023-07-08T13:01:25;29.50;84.90
31038;DHT22;17702;47.590;7.666;2023-07-08T13:04:02;29.70;81.90
31038;DHT22;17702;47.590;7.666;2023-07-08T13:06:30;29.80;81.50
31038;DHT22;17702;47.590;7.666;2023-07-08T13:11:45;30.10;80.40
31038;DHT22;17702;47.590;7.666;2023-07-08T13:14:12;30.20;79.40
31038;DHT22;17702;47.590;7.666;2023-07-08T13:16:40;30.30;79.00
31038;DHT22;17702;47.590;7.666;2023-07-08T13:19:06;30.40;78.90
31038;DHT22;17702;47.590;7.666;2023-07-08T13:21:32;30.30;77.10
31038;DHT22;17702;47.590;7.666;2023-07-08T13:23:58;30.40;78.30
31038;DHT22;17702;47.590;7.666;2023-07-08T13:26:29;30.40;76.20
31038;DHT22;17702;47.590;7.666;2023-07-08T13:29:11;30.60;79.70
31038;DHT22;17702;47.590;7.666;2023-07-08T13:31:38;30.80;76.20
31038;DHT22;17702;47.590;7.666;2023-07-08T13:34:10;30.90;77.90
31038;DHT22;17702;47.590;7.666;2023-07-08T13:36:42;30.90;72.00
31038;DHT22;17702;47.590;7.666;2023-07-08T13:39:13;30.90;74.00
31038;DHT22;17702;47.590;7.666;2023-07-08T13:41:43;30.80;73.90
31038;DHT22;17702;47.590;7.666;2023-07-08T13:44:10;30.70;71.80
31038;DHT22;17702;47.590;7.666;2023-07-08T13:46:37;30.70;71.70
31038;DHT22;17702;47.590;7.666;2023-07-08T13:49:15;30.70;72.70
31038;DHT22;17702;47.590;7.666;2023-07-08T13:51:44;30.80;72.30
31038;DHT22;17702;47.590;7.666;2023-07-08T13:57:33;31.00;70.50
31038;DHT22;17702;47.590;7.666;2023-07-08T13:59:59;30.80;68.30
31038;DHT22;17702;47.590;7.666;2023-07-08T14:02:29;30.80;68.90
31038;DHT22;17702;47.590;7.666;2023-07-08T14:04:56;30.80;69.90
31038;DHT22;17702;47.590;7.666;2023-07-08T14:07:26;30.80;68.60
31038;DHT22;17702;47.590;7.666;2023-07-08T14:09:52;31.00;71.20
31038;DHT22;17702;47.590;7.666;2023-07-08T14:12:20;31.00;67.30
31038;DHT22;17702;47.590;7.666;2023-07-08T14:14:45;30.90;66.40
31038;DHT22;17702;47.590;7.666;2023-07-08T14:17:14;30.90;68.90
31038;DHT22;17702;47.590;7.666;2023-07-08T14:19:40;30.90;68.60
31038;DHT22;17702;47.590;7.666;2023-07-08T14:24:39;30.80;67.40
31038;DHT22;17702;47.590;7.666;2023-07-08T14:27:06;30.80;70.20
31038;DHT22;17702;47.590;7.666;2023-07-08T14:29:35;30.80;69.00
31038;DHT22;17702;47.590;7.666;2023-07-08T14:32:01;30.80;67.50
31038;DHT22;17702;47.590;7.666;2023-07-08T14:34:27;30.80;67.50
31038;DHT22;17702;47.590;7.666;2023-07-08T14:36:53;30.80;67.80
31038;DHT22;17702;47.590;7.666;2023-07-08T14:39:19;30.90;66.80
31038;DHT22;17702;47.590;7.666;2023-07-08T14:41:47;30.80;62.20
31038;DHT22;17702;47.590;7.666;2023-07-08T14:44:22;30.80;66.50
31038;DHT22;17702;47.590;7.666;2023-07-08T14:46:48;30.90;64.60
31038;DHT22;17702;47.590;7.666;2023-07-08T14:49:17;30.90;64.50
31038;DHT22;17702;47.590;7.666;2023-07-08T14:51:43;30.90;64.30
31038;DHT22;17702;47.590;7.666;2023-07-08T14:54:08;30.90;62.60
31038;DHT22;17702;47.590;7.666;2023-07-08T14:56:34;30.90;66.50
31038;DHT22;17702;47.590;7.666;2023-07-08T14:59:00;30.80;63.90
31038;DHT22;17702;47.590;7.666;2023-07-08T15:01:26;30.80;62.20
31038;DHT22;17702;47.590;7.666;2023-07-08T15:03:55;30.70;63.80
31038;DHT22;17702;47.590;7.666;2023-07-08T15:06:21;30.70;64.70
31038;DHT22;17702;47.590;7.666;2023-07-08T15:08:47;30.70;62.00
31038;DHT22;17702;47.590;7.666;2023-07-08T15:11:13;30.50;63.70
31038;DHT22;17702;47.590;7.666;2023-07-08T15:13:40;30.40;63.10
31038;DHT22;17702;47.590;7.666;2023-07-08T15:16:12;30.40;64.60
31038;DHT22;17702;47.590;7.666;2023-07-08T15:18:39;30.30;62.50
31038;DHT22;17702;47.590;7.666;2023-07-08T15:21:11;30.20;63.40
31038;DHT22;17702;47.590;7.666;2023-07-08T15:23:37;30.20;64.20
31038;DHT22;17702;47.590;7.666;2023-07-08T15:26:03;30.20;65.60
31038;DHT22;17702;47.590;7.666;2023-07-08T15:28:49;30.20;63.20
31038;DHT22;17702;47.590;7.666;2023-07-08T15:31:20;30.00;64.30
31038;DHT22;17702;47.590;7.666;2023-07-08T15:33:50;29.90;66.40
31038;DHT22;17702;47.590;7.666;2023-07-08T15:36:15;29.90;65.40
31038;DHT22;17702;47.590;7.666;2023-07-08T15:38:42;29.70;65.80
31038;DHT22;17702;47.590;7.666;2023-07-08T15:41:22;29.60;65.90
31038;DHT22;17702;47.590;7.666;2023-07-08T15:43:49;29.40;68.50
31038;DHT22;17702;47.590;7.666;2023-07-08T15:46:15;29.30;67.80
31038;DHT22;17702;47.590;7.666;2023-07-08T15:48:41;29.30;65.80
31038;DHT22;17702;47.590;7.666;2023-07-08T15:51:08;29.20;67.00
31038;DHT22;17702;47.590;7.666;2023-07-08T15:53:37;29.00;68.10
31038;DHT22;17702;47.590;7.666;2023-07-08T15:56:02;28.90;68.60
31038;DHT22;17702;47.590;7.666;2023-07-08T15:58:30;28.80;68.80
31038;DHT22;17702;47.590;7.666;2023-07-08T16:00:58;28.80;71.40
31038;DHT22;17702;47.590;7.666;2023-07-08T16:03:26;28.70;71.30
31038;DHT22;17702;47.590;7.666;2023-07-08T16:05:53;28.60;70.50
31038;DHT22;17702;47.590;7.666;2023-07-08T16:08:19;28.60;71.50
31038;DHT22;17702;47.590;7.666;2023-07-08T16:10:54;28.50;70.20
31038;DHT22;17702;47.590;7.666;2023-07-08T16:13:32;28.40;71.60
31038;DHT22;17702;47.590;7.666;2023-07-08T16:16:00;28.30;70.70
31038;DHT22;17702;47.590;7.666;2023-07-08T16:18:26;28.20;72.90
31038;DHT22;17702;47.590;7.666;2023-07-08T16:20:52;28.20;71.30
31038;DHT22;17702;47.590;7.666;2023-07-08T16:23:18;28.20;71.00
31038;DHT22;17702;47.590;7.666;2023-07-08T16:25:48;28.10;71.80
31038;DHT22;17702;47.590;7.666;2023-07-08T16:30:55;28.00;70.20
31038;DHT22;17702;47.590;7.666;2023-07-08T16:33:21;28.00;70.80
31038;DHT22;17702;47.590;7.666;2023-07-08T16:35:47;28.00;71.60
31038;DHT22;17702;47.590;7.666;2023-07-08T16:38:12;27.90;70.20
31038;DHT22;17702;47.590;7.666;2023-07-08T16:40:39;27.90;70.90